Time;durP1;ratioP1;P1;durP2;ratioP2;P2;SDS_P1;SDS_P2;PMS_P1;PMS_P2;Temp;Humidity;BMP_temperature;BMP_pressure;BME280_temperature;BME280_humidity;BME280_pressure;Samples;Min_cycle;Max_cycle;Signal;HPM_P1;HPM_P2
2021/07/16 00:00:52;;;;;;;3.95;2.50;;;16.60;99.90;;;;;;6218681;28;20029;-82
2021/07/16 00:03:53;;;;;;;3.53;2.70;;;16.60;99.90;;;;;;6218701;28;20034;-82
2021/07/16 00:06:53;;;;;;;4.15;2.80;;;16.60;99.90;;;;;;6218424;28;20030;-81
2021/07/16 00:09:54;;;;;;;3.25;2.60;;;16.60;99.90;;;;;;6218505;28;20087;-83
2021/07/16 00:12:54;;;;;;;2.50;2.30;;;16.60;99.90;;;;;;6218080;28;20116;-82
2021/07/16 00:15:55;;;;;;;2.90;2.60;;;16.60;99.90;;;;;;6218527;28;20049;-84
2021/07/16 00:18:56;;;;;;;3.97;2.45;;;16.60;99.90;;;;;;6201195;28;20037;-83
2021/07/16 00:21:56;;;;;;;2.90;2.60;;;16.60;99.90;;;;;;6218109;28;20041;-82
2021/07/16 00:24:57;;;;;;;4.97;2.40;;;16.60;99.90;;;;;;6218412;28;20080;-82
2021/07/16 00:27:57;;;;;;;3.33;2.42;;;16.60;99.90;;;;;;6218362;28;20471;-83
2021/07/16 00:30:58;;;;;;;3.50;2.67;;;16.60;99.90;;;;;;6218237;28;20099;-82
2021/07/16 00:33:58;;;;;;;3.33;2.65;;;16.60;99.90;;;;;;6219423;28;20038;-83
2021/07/16 00:36:59;;;;;;;2.50;2.30;;;16.50;99.90;;;;;;6218044;28;20057;-82
2021/07/16 00:40:00;;;;;;;3.03;2.47;;;16.50;99.90;;;;;;6218281;28;20029;-81
2021/07/16 00:43:01;;;;;;;5.20;2.72;;;16.60;99.90;;;;;;6217982;28;20490;-82
2021/07/16 00:46:01;;;;;;;9.48;2.67;;;16.50;99.90;;;;;;6218071;28;20975;-81
2021/07/16 00:49:02;;;;;;;9.18;2.70;;;17.90;99.90;;;;;;6217769;28;20033;-80
2021/07/16 00:52:03;;;;;;;3.72;2.42;;;16.50;99.90;;;;;;6201355;28;20603;-83
2021/07/16 00:55:04;;;;;;;3.50;2.50;;;16.50;99.90;;;;;;6200695;28;20042;-82
2021/07/16 00:58:05;;;;;;;3.88;2.60;;;16.50;99.90;;;;;;6201139;28;20461;-83
2021/07/16 01:01:06;;;;;;;2.88;2.53;;;16.50;99.90;;;;;;6217697;28;20052;-82
2021/07/16 01:04:07;;;;;;;3.03;2.60;;;16.50;99.90;;;;;;6217823;28;20041;-83
2021/07/16 01:07:07;;;;;;;3.85;2.60;;;16.40;99.90;;;;;;6217429;28;20030;-83
2021/07/16 01:10:09;;;;;;;3.45;2.75;;;16.40;99.90;;;;;;6201284;28;20022;-83
2021/07/16 01:13:13;;;;;;;3.67;2.58;;;16.50;99.90;;;;;;6217020;28;20637;-83
2021/07/16 01:16:14;;;;;;;2.95;2.65;;;16.50;99.90;;;;;;6217943;28;20038;-82
2021/07/16 01:19:25;;;;;;;5.07;2.45;;;16.50;99.90;;;;;;6217697;28;20603;-82
2021/07/16 01:22:27;;;;;;;8.15;3.00;;;16.60;99.90;;;;;;6201041;28;20412;-83
2021/07/16 01:25:30;;;;;;;4.43;2.88;;;16.60;99.90;;;;;;6201158;28;20038;-83
2021/07/16 01:28:30;;;;;;;3.03;2.55;;;16.50;99.90;;;;;;6200639;28;20034;-83
2021/07/16 01:31:31;;;;;;;4.72;3.30;;;16.50;99.90;;;;;;6221246;28;20037;-82
2021/07/16 01:34:32;;;;;;;4.47;2.90;;;16.50;99.90;;;;;;6205581;28;20110;-83
2021/07/16 01:37:33;;;;;;;7.10;3.15;;;16.40;99.90;;;;;;6205681;28;20084;-83
2021/07/16 01:40:37;;;;;;;2.92;2.42;;;16.20;99.90;;;;;;6222262;28;20040;-83
2021/07/16 01:43:38;;;;;;;3.03;2.63;;;16.20;99.90;;;;;;6221905;28;20037;-83
2021/07/16 01:46:38;;;;;;;3.70;2.42;;;16.10;99.90;;;;;;6221729;28;20808;-82
2021/07/16 01:49:39;;;;;;;3.67;2.50;;;16.00;99.90;;;;;;6221782;28;20030;-83
2021/07/16 01:52:40;;;;;;;2.90;2.45;;;16.00;99.90;;;;;;6221351;28;20033;-82
2021/07/16 01:55:40;;;;;;;4.65;2.58;;;16.00;99.90;;;;;;6205252;28;20034;-82
2021/07/16 01:58:41;;;;;;;3.80;2.70;;;16.10;99.90;;;;;;6221986;28;20137;-83
2021/07/16 02:01:41;;;;;;;2.90;2.38;;;16.00;99.90;;;;;;6221335;28;20048;-83
2021/07/16 02:04:42;;;;;;;4.20;2.40;;;16.10;99.90;;;;;;6206051;28;20076;-83
2021/07/16 02:07:47;;;;;;;3.88;2.25;;;16.10;99.90;;;;;;6221552;28;20438;-83
2021/07/16 02:10:49;;;;;;;2.63;2.42;;;16.20;99.90;;;;;;6221526;28;20028;-82
2021/07/16 02:13:50;;;;;;;2.70;2.50;;;16.20;99.90;;;;;;6220928;28;20462;-85
2021/07/16 02:16:53;;;;;;;4.90;2.40;;;16.20;99.90;;;;;;6221522;28;20036;-81
2021/07/16 02:19:54;;;;;;;2.95;2.65;;;16.30;99.90;;;;;;6221136;28;20025;-82
2021/07/16 02:22:57;;;;;;;7.18;3.28;;;16.20;99.90;;;;;;6221492;28;20087;-82
2021/07/16 02:25:58;;;;;;;3.08;2.75;;;16.20;99.90;;;;;;6204869;28;20112;-82
2021/07/16 02:28:59;;;;;;;8.18;3.30;;;16.20;99.90;;;;;;6204310;28;20084;-83
2021/07/16 02:32:00;;;;;;;7.10;3.10;;;16.10;99.90;;;;;;6204794;28;20026;-82
2021/07/16 02:35:00;;;;;;;3.38;2.80;;;16.10;99.90;;;;;;6204111;28;20050;-83
2021/07/16 02:38:01;;;;;;;4.68;3.00;;;16.00;99.90;;;;;;6204370;28;20176;-82
2021/07/16 02:41:02;;;;;;;3.90;3.10;;;15.90;99.90;;;;;;6219988;28;20091;-81
2021/07/16 02:44:03;;;;;;;3.35;2.95;;;15.90;99.90;;;;;;6220510;28;20034;-82
2021/07/16 02:47:04;;;;;;;7.30;3.60;;;15.90;99.90;;;;;;6220750;28;20387;-83
2021/07/16 02:50:10;;;;;;;4.65;2.90;;;15.80;99.90;;;;;;6220958;28;20030;-81
2021/07/16 02:53:16;;;;;;;3.20;2.90;;;15.80;99.90;;;;;;6220967;28;20034;-81
2021/07/16 02:56:16;;;;;;;4.43;3.20;;;15.70;99.90;;;;;;6220501;28;20076;-83
2021/07/16 02:59:17;;;;;;;9.23;3.33;;;15.70;99.90;;;;;;6220588;28;20021;-82
2021/07/16 03:02:17;;;;;;;4.47;3.10;;;15.70;99.90;;;;;;6220416;28;20029;-83
2021/07/16 03:05:20;;;;;;;3.25;2.92;;;15.90;99.90;;;;;;6220538;28;20491;-82
2021/07/16 03:08:21;;;;;;;5.93;3.15;;;15.80;99.90;;;;;;6203639;28;20396;-82
2021/07/16 03:11:22;;;;;;;4.90;3.15;;;15.80;99.90;;;;;;6220086;28;20132;-84
2021/07/16 03:14:22;;;;;;;3.20;2.90;;;15.80;99.90;;;;;;6219446;28;20061;-84
2021/07/16 03:17:23;;;;;;;4.82;3.20;;;15.90;99.90;;;;;;6236213;28;20108;-83
2021/07/16 03:20:29;;;;;;;4.07;3.25;;;15.90;99.90;;;;;;6203715;28;20040;-83
2021/07/16 03:23:29;;;;;;;3.10;2.80;;;15.90;99.90;;;;;;6220923;28;20029;-82
2021/07/16 03:26:30;;;;;;;4.95;3.13;;;15.90;99.90;;;;;;6203841;28;20065;-84
2021/07/16 03:29:31;;;;;;;5.40;3.08;;;15.90;99.90;;;;;;6221934;28;20040;-82
2021/07/16 03:32:31;;;;;;;4.05;2.78;;;15.80;99.90;;;;;;6221074;28;20381;-81
2021/07/16 03:35:32;;;;;;;3.72;2.90;;;15.90;99.90;;;;;;6220331;28;20120;-83
2021/07/16 03:38:33;;;;;;;3.63;2.35;;;15.90;99.90;;;;;;6220027;28;20025;-84
2021/07/16 03:41:36;;;;;;;3.72;2.88;;;15.90;99.90;;;;;;6219754;28;20037;-81
2021/07/16 03:44:37;;;;;;;7.13;2.78;;;15.90;99.90;;;;;;6203765;28;20087;-83
2021/07/16 03:47:44;;;;;;;4.15;2.78;;;15.90;99.90;;;;;;6203002;28;20084;-83
2021/07/16 03:50:47;;;;;;;3.05;2.58;;;15.90;99.90;;;;;;6219238;28;20480;-82
2021/07/16 03:53:48;;;;;;;4.55;2.80;;;15.80;99.90;;;;;;6217719;28;20076;-83
2021/07/16 03:56:48;;;;;;;5.10;3.30;;;15.80;99.90;;;;;;6218992;28;20033;-83
2021/07/16 03:59:49;;;;;;;5.57;3.17;;;15.80;99.90;;;;;;6202419;28;20111;-83
2021/07/16 04:02:49;;;;;;;8.95;4.72;;;15.90;99.90;;;;;;6202444;28;20033;-83
2021/07/16 04:05:50;;;;;;;5.40;2.97;;;15.80;99.90;;;;;;6219096;28;20026;-82
2021/07/16 04:08:59;;;;;;;4.57;3.30;;;15.80;99.90;;;;;;6218280;28;20056;-83
2021/07/16 04:12:10;;;;;;;3.38;2.63;;;15.80;99.90;;;;;;6203591;28;20088;-85
2021/07/16 04:15:11;;;;;;;5.63;3.15;;;15.70;99.90;;;;;;6218295;28;20147;-84
2021/07/16 04:18:12;;;;;;;3.60;3.13;;;15.80;99.90;;;;;;6218831;28;20025;-85
2021/07/16 04:21:12;;;;;;;4.03;3.42;;;15.80;99.90;;;;;;6201787;28;20064;-82
2021/07/16 04:24:13;;;;;;;6.13;3.30;;;15.90;99.90;;;;;;6218571;28;20049;-82
2021/07/16 04:27:14;;;;;;;6.07;3.33;;;15.90;99.90;;;;;;6202016;28;20444;-82
2021/07/16 04:30:15;;;;;;;6.97;3.65;;;16.00;99.90;;;;;;6201036;28;20078;-83
2021/07/16 04:33:16;;;;;;;3.47;3.17;;;16.20;99.90;;;;;;6217402;28;20032;-82
2021/07/16 04:36:16;;;;;;;6.57;3.63;;;16.00;99.90;;;;;;6217979;28;20034;-83
2021/07/16 04:39:17;;;;;;;5.72;3.50;;;16.10;99.90;;;;;;6217929;28;20375;-81
2021/07/16 04:42:18;;;;;;;3.78;3.33;;;16.20;99.90;;;;;;6217818;28;20084;-82
2021/07/16 04:45:19;;;;;;;4.72;3.42;;;16.20;99.90;;;;;;6218176;28;20040;-88
2021/07/16 04:48:19;;;;;;;5.70;3.20;;;16.30;99.90;;;;;;6201709;28;20469;-87
2021/07/16 04:51:27;;;;;;;4.07;3.15;;;16.30;99.90;;;;;;6217193;28;20113;-84
2021/07/16 04:54:28;;;;;;;7.30;3.75;;;18.20;99.90;;;;;;6217508;28;20128;-83
2021/07/16 04:57:28;;;;;;;5.63;3.80;;;16.50;99.90;;;;;;6217844;28;20079;-83
2021/07/16 05:00:29;;;;;;;5.38;4.28;;;16.50;99.90;;;;;;6201000;28;20033;-84
2021/07/16 05:03:30;;;;;;;5.60;3.47;;;16.70;99.90;;;;;;6217519;28;20034;-83
2021/07/16 05:06:30;;;;;;;8.57;4.82;;;17.10;99.90;;;;;;6217008;28;20523;-83
2021/07/16 05:09:31;;;;;;;4.43;3.75;;;17.00;99.90;;;;;;6217768;28;20026;-85
2021/07/16 05:12:32;;;;;;;6.10;3.45;;;17.20;99.90;;;;;;6199430;28;20038;-83
2021/07/16 05:15:34;;;;;;;5.28;3.30;;;17.60;99.90;;;;;;6216879;28;20050;-81
2021/07/16 05:18:35;;;;;;;15.85;3.55;;;18.30;99.90;;;;;;6217364;28;20029;-83
2021/07/16 05:21:35;;;;;;;7.22;3.63;;;18.40;99.90;;;;;;6217444;28;20042;-81
2021/07/16 05:24:37;;;;;;;4.72;3.88;;;18.50;99.90;;;;;;6217371;28;20531;-82
2021/07/16 05:27:39;;;;;;;5.80;3.28;;;18.60;99.90;;;;;;6200759;28;20080;-82
2021/07/16 05:30:40;;;;;;;4.05;3.42;;;18.50;99.90;;;;;;6217414;28;20030;-82
2021/07/16 05:33:40;;;;;;;4.85;3.63;;;18.30;99.90;;;;;;6216169;28;20089;-84
2021/07/16 05:36:41;;;;;;;5.57;3.83;;;18.20;99.90;;;;;;6199242;28;20499;-83
2021/07/16 05:39:41;;;;;;;4.38;3.60;;;17.90;99.90;;;;;;6217078;28;20042;-85
2021/07/16 05:42:42;;;;;;;5.35;4.13;;;17.80;99.90;;;;;;6216816;28;20460;-82
2021/07/16 05:45:43;;;;;;;4.93;3.78;;;17.60;99.90;;;;;;6217487;28;20026;-82
2021/07/16 05:48:46;;;;;;;4.13;3.55;;;17.50;99.90;;;;;;6210677;28;20520;-84
2021/07/16 05:51:47;;;;;;;4.10;3.35;;;17.40;99.90;;;;;;6215471;28;20044;-85
2021/07/16 05:54:47;;;;;;;4.00;3.60;;;17.40;99.90;;;;;;6217891;28;20070;-86
2021/07/16 05:57:48;;;;;;;5.90;3.80;;;17.50;99.90;;;;;;6200448;28;20030;-83
2021/07/16 06:00:49;;;;;;;4.35;3.92;;;17.50;99.90;;;;;;6217025;28;20115;-85
2021/07/16 06:03:49;;;;;;;3.88;3.40;;;17.70;99.90;;;;;;6216950;28;20120;-85
2021/07/16 06:06:50;;;;;;;4.90;3.90;;;17.80;99.90;;;;;;6216562;28;20037;-83
2021/07/16 06:09:51;;;;;;;6.80;3.65;;;17.90;99.90;;;;;;6216909;28;20034;-83
2021/07/16 06:12:51;;;;;;;4.13;3.72;;;18.10;99.90;;;;;;6216514;28;20124;-85
2021/07/16 06:15:52;;;;;;;5.28;3.58;;;18.10;99.90;;;;;;6216383;28;20037;-84
2021/07/16 06:18:52;;;;;;;4.35;3.70;;;18.10;99.90;;;;;;6221135;28;20034;-83
2021/07/16 06:21:53;;;;;;;5.10;3.47;;;18.10;99.90;;;;;;6221283;28;20022;-85
2021/07/16 06:24:53;;;;;;;5.22;3.75;;;18.10;99.90;;;;;;6204760;28;20460;-84
2021/07/16 06:27:54;;;;;;;4.07;3.67;;;18.80;99.90;;;;;;6221076;28;20104;-84
2021/07/16 06:30:55;;;;;;;4.55;3.35;;;19.40;99.90;;;;;;6204704;28;20391;-84
2021/07/16 06:33:55;;;;;;;3.75;3.45;;;20.60;99.90;;;;;;6204550;28;20061;-84
2021/07/16 06:36:56;;;;;;;3.65;3.10;;;21.90;99.90;;;;;;6220743;28;20038;-83
2021/07/16 06:39:57;;;;;;;3.83;3.30;;;22.80;99.90;;;;;;6204626;28;20476;-84
2021/07/16 06:42:58;;;;;;;3.90;3.60;;;23.20;99.90;;;;;;6220930;28;20026;-84
2021/07/16 06:45:58;;;;;;;4.57;3.60;;;23.40;99.90;;;;;;6220923;28;20115;-83
2021/07/16 06:48:59;;;;;;;3.58;3.25;;;23.40;99.80;;;;;;6220398;28;20534;-83
2021/07/16 06:52:00;;;;;;;3.80;3.40;;;23.70;98.60;;;;;;6204082;28;20061;-84
2021/07/16 06:55:01;;;;;;;3.88;3.58;;;24.70;99.10;;;;;;6220454;28;20026;-85
2021/07/16 06:58:11;;;;;;;5.03;3.03;;;25.60;97.10;;;;;;6220180;28;20176;-84
2021/07/16 07:01:11;;;;;;;6.95;3.33;;;26.10;96.20;;;;;;6220236;28;20028;-85
2021/07/16 07:04:12;;;;;;;4.00;3.23;;;26.50;95.00;;;;;;6220762;28;20026;-84
2021/07/16 07:07:12;;;;;;;2.87;2.67;;;27.40;92.70;;;;;;6220402;28;20104;-84
2021/07/16 07:10:13;;;;;;;3.30;3.00;;;27.20;92.30;;;;;;6220252;28;20071;-83
2021/07/16 07:13:14;;;;;;;3.40;2.87;;;26.60;92.40;;;;;;6219623;28;20079;-83
2021/07/16 07:16:16;;;;;;;4.57;2.90;;;25.70;93.00;;;;;;6203244;28;20052;-83
2021/07/16 07:19:17;;;;;;;3.78;3.17;;;25.10;95.40;;;;;;6220116;28;20033;-83
2021/07/16 07:22:18;;;;;;;4.13;3.33;;;25.00;96.20;;;;;;6219725;28;20912;-82
2021/07/16 07:25:18;;;;;;;5.77;3.30;;;24.60;96.50;;;;;;6219564;28;20043;-84
2021/07/16 07:28:19;;;;;;;4.80;2.73;;;24.70;97.50;;;;;;6203411;28;20037;-84
2021/07/16 07:31:19;;;;;;;3.30;2.90;;;25.00;97.10;;;;;;6219543;28;20068;-83
2021/07/16 07:34:20;;;;;;;4.20;2.60;;;24.90;95.90;;;;;;6219082;28;20037;-83
2021/07/16 07:37:21;;;;;;;2.90;2.70;;;25.50;96.50;;;;;;6203072;28;20132;-83
2021/07/16 07:40:21;;;;;;;4.53;2.97;;;26.30;95.80;;;;;;6219668;28;20120;-83
2021/07/16 07:43:22;;;;;;;6.07;2.90;;;25.70;95.50;;;;;;6219193;28;20033;-82
2021/07/16 07:46:23;;;;;;;6.40;3.30;;;25.60;95.50;;;;;;6203243;28;20088;-83
2021/07/16 07:49:28;;;;;;;3.83;3.10;;;24.40;97.00;;;;;;6219241;28;20807;-83
2021/07/16 07:52:28;;;;;;;4.47;3.10;;;22.90;98.50;;;;;;6203146;28;20030;-83
2021/07/16 07:55:29;;;;;;;3.50;3.20;;;23.10;99.90;;;;;;6218994;28;20064;-82
2021/07/16 07:58:29;;;;;;;2.92;2.70;;;22.90;99.90;;;;;;6219231;28;20032;-83
2021/07/16 08:01:32;;;;;;;3.40;3.10;;;22.70;99.90;;;;;;6202649;28;20056;-83
2021/07/16 08:04:32;;;;;;;3.50;3.20;;;22.80;99.90;;;;;;6218919;28;20029;-83
2021/07/16 08:07:33;;;;;;;5.25;3.03;;;23.10;99.90;;;;;;6219049;28;20523;-82
2021/07/16 08:10:34;;;;;;;4.93;3.27;;;23.50;99.90;;;;;;6218332;28;20025;-83
2021/07/16 08:13:34;;;;;;;4.07;3.58;;;23.80;99.90;;;;;;6218488;28;20086;-83
2021/07/16 08:16:35;;;;;;;3.93;3.53;;;23.60;99.90;;;;;;6218382;28;20064;-83
2021/07/16 08:19:36;;;;;;;3.65;3.13;;;23.20;99.90;;;;;;6218470;28;20494;-82
2021/07/16 08:22:38;;;;;;;3.90;3.60;;;22.70;99.90;;;;;;6218545;28;20033;-83
2021/07/16 08:25:38;;;;;;;;;;;22.20;99.90;;;;;;6219230;28;20034;-82
2021/07/16 08:28:39;;;;;;;3.53;3.22;;;21.80;99.90;;;;;;6217752;28;20421;-83
2021/07/16 08:31:40;;;;;;;5.53;3.20;;;21.60;99.90;;;;;;6202011;28;20034;-84
2021/07/16 08:34:41;;;;;;;4.60;3.10;;;21.40;99.90;;;;;;6201841;28;20527;-83
2021/07/16 08:37:41;;;;;;;3.47;3.17;;;21.40;99.90;;;;;;6201845;28;20033;-83
2021/07/16 08:40:43;;;;;;;4.00;3.70;;;21.20;99.90;;;;;;6218942;28;20109;-84
2021/07/16 08:43:43;;;;;;;6.90;3.50;;;21.10;99.90;;;;;;6201518;28;20113;-82
2021/07/16 08:46:44;;;;;;;3.75;3.45;;;21.10;99.90;;;;;;6217888;28;20068;-83
2021/07/16 08:49:45;;;;;;;3.67;3.38;;;21.20;99.90;;;;;;6217890;28;20033;-82
2021/07/16 08:52:47;;;;;;;5.32;3.72;;;21.20;99.90;;;;;;6217383;28;20030;-83
2021/07/16 08:55:48;;;;;;;3.50;3.20;;;21.40;99.90;;;;;;6217937;28;20044;-83
2021/07/16 08:58:48;;;;;;;3.45;3.15;;;21.40;99.90;;;;;;6201293;28;20428;-83
2021/07/16 09:01:50;;;;;;;3.92;3.63;;;21.40;99.90;;;;;;6217463;28;20435;-84
2021/07/16 09:04:59;;;;;;;4.95;3.58;;;21.60;99.90;;;;;;6217915;28;20030;-83
2021/07/16 09:08:00;;;;;;;4.25;3.78;;;21.70;99.90;;;;;;6217795;28;20085;-83
2021/07/16 09:11:00;;;;;;;5.15;3.90;;;21.80;99.90;;;;;;6201152;28;20445;-83
2021/07/16 09:14:01;;;;;;;4.25;3.85;;;21.90;99.90;;;;;;6217111;28;20416;-83
2021/07/16 09:17:09;;;;;;;4.82;4.32;;;22.10;99.90;;;;;;6217291;28;20042;-84
2021/07/16 09:20:21;;;;;;;4.78;3.83;;;22.50;99.90;;;;;;6216908;28;20060;-82
2021/07/16 09:23:26;;;;;;;;;;;23.10;99.90;;;;;;6217651;28;20026;-83
2021/07/16 09:26:28;;;;;;;4.13;3.72;;;23.00;99.90;;;;;;6201318;28;19975;-83
2021/07/16 09:29:32;;;;;;;4.55;3.47;;;23.10;99.90;;;;;;6201039;28;20033;-83
2021/07/16 09:32:38;;;;;;;3.78;3.38;;;23.10;99.90;;;;;;6201059;28;20121;-82
2021/07/16 09:35:39;;;;;;;5.28;3.55;;;23.20;99.90;;;;;;6216961;28;20037;-83
2021/07/16 09:38:40;;;;;;;6.43;3.53;;;23.60;99.90;;;;;;6200993;28;20160;-83
2021/07/16 09:41:49;;;;;;;3.78;3.40;;;23.80;99.90;;;;;;6216998;28;20038;-83
2021/07/16 09:44:57;;;;;;;3.90;3.55;;;23.80;99.90;;;;;;6218776;28;20117;-83
2021/07/16 09:47:59;;;;;;;3.30;3.00;;;23.70;99.80;;;;;;6217336;28;20107;-82
2021/07/16 09:51:20;;;;;;;3.88;3.58;;;23.60;99.90;;;;;;6218697;28;20052;-82
2021/07/16 09:54:20;;;;;;;4.03;3.63;;;23.50;99.80;;;;;;6221685;28;20141;-83
2021/07/16 09:57:44;;;;;;;3.30;3.00;;;23.40;99.10;;;;;;6222263;28;20034;-82
2021/07/16 10:00:45;;;;;;;4.18;3.33;;;23.30;99.10;;;;;;6205225;28;20472;-83
2021/07/16 10:03:45;;;;;;;4.20;3.43;;;23.40;98.00;;;;;;6221655;28;20038;-84
2021/07/16 10:06:48;;;;;;;3.95;3.30;;;23.20;98.40;;;;;;6221387;28;20077;-83
2021/07/16 10:09:48;;;;;;;3.60;3.30;;;23.00;99.10;;;;;;6221450;28;20061;-83
2021/07/16 10:12:50;;;;;;;5.47;3.80;;;23.20;99.90;;;;;;6220887;28;20389;-83
2021/07/16 10:15:50;;;;;;;6.15;3.47;;;23.40;99.90;;;;;;6221560;28;20046;-83
2021/07/16 10:18:54;;;;;;;3.60;3.30;;;23.50;98.90;;;;;;6204778;28;20038;-83
2021/07/16 10:21:54;;;;;;;4.28;3.60;;;23.90;97.60;;;;;;6221355;28;20034;-83
2021/07/16 10:24:55;;;;;;;3.83;3.00;;;23.80;95.80;;;;;;6221440;28;20034;-83
2021/07/16 10:27:56;;;;;;;3.28;2.92;;;23.70;95.40;;;;;;6221097;28;20113;-83
2021/07/16 10:30:56;;;;;;;3.37;2.97;;;23.60;95.70;;;;;;6221142;28;20058;-82
2021/07/16 10:33:57;;;;;;;3.60;3.30;;;23.60;97.70;;;;;;6203735;28;20042;-82
2021/07/16 10:36:59;;;;;;;4.53;3.43;;;23.80;96.40;;;;;;6220940;28;20030;-83
2021/07/16 10:40:00;;;;;;;3.50;3.20;;;23.70;95.50;;;;;;6220833;28;20025;-82
2021/07/16 10:43:01;;;;;;;3.97;3.57;;;23.70;96.30;;;;;;6220650;28;20022;-82
2021/07/16 10:46:02;;;;;;;3.40;3.10;;;23.70;97.20;;;;;;6204398;28;20026;-81
2021/07/16 10:49:05;;;;;;;4.72;3.38;;;23.60;98.80;;;;;;6220797;28;20467;-82
2021/07/16 10:52:06;;;;;;;3.42;3.17;;;23.50;98.60;;;;;;6203957;28;20029;-82
2021/07/16 10:55:08;;;;;;;5.10;3.80;;;23.20;99.50;;;;;;6221810;28;20041;-82
2021/07/16 10:58:27;;;;;;;4.20;3.83;;;23.00;99.90;;;;;;6203740;28;20033;-82
2021/07/16 11:01:33;;;;;;;5.18;4.05;;;22.80;99.90;;;;;;6219485;28;20428;-82
2021/07/16 11:04:35;;;;;;;3.70;3.40;;;22.60;99.90;;;;;;6219073;28;20053;-82
2021/07/16 11:07:35;;;;;;;4.65;3.70;;;22.30;99.90;;;;;;6220066;28;20400;-82
2021/07/16 11:10:58;;;;;;;4.60;3.77;;;22.30;99.90;;;;;;6220030;28;20045;-82
2021/07/16 11:14:02;;;;;;;4.00;3.60;;;22.30;99.90;;;;;;6219641;28;20073;-81
2021/07/16 11:17:03;;;;;;;4.35;3.42;;;22.40;99.90;;;;;;6219598;28;20040;-82
2021/07/16 11:20:10;;;;;;;3.90;3.53;;;22.30;99.90;;;;;;6219581;28;20052;-83
2021/07/16 11:23:10;;;;;;;6.45;3.90;;;22.40;99.90;;;;;;6219766;28;20034;-83
2021/07/16 11:26:15;;;;;;;4.85;3.80;;;22.40;99.90;;;;;;6219839;28;20102;-81
2021/07/16 11:29:17;;;;;;;3.97;3.67;;;22.30;99.80;;;;;;6203117;28;20036;-83
2021/07/16 11:32:21;;;;;;;4.38;3.92;;;22.50;99.40;;;;;;6219762;28;20033;-82
2021/07/16 11:35:22;;;;;;;3.90;3.35;;;22.60;99.90;;;;;;6219009;28;20104;-82
2021/07/16 11:38:22;;;;;;;7.20;3.88;;;22.70;99.50;;;;;;6219460;28;20030;-84
2021/07/16 11:41:33;;;;;;;4.53;4.13;;;22.60;99.90;;;;;;6220093;28;20029;-84
2021/07/16 11:44:35;;;;;;;4.03;3.72;;;22.90;99.70;;;;;;6202977;28;20064;-83
2021/07/16 11:47:36;;;;;;;3.90;3.22;;;23.00;98.50;;;;;;6202320;28;20041;-84
2021/07/16 11:50:36;;;;;;;3.60;3.30;;;22.80;98.50;;;;;;6201835;28;20030;-84
2021/07/16 11:53:37;;;;;;;3.50;3.20;;;22.90;98.50;;;;;;6201381;28;20456;-83
2021/07/16 11:56:37;;;;;;;3.85;3.55;;;22.70;97.30;;;;;;6217866;28;20487;-84
2021/07/16 11:59:48;;;;;;;3.58;3.28;;;22.40;98.70;;;;;;6200997;28;20065;-84
2021/07/16 12:02:49;;;;;;;3.83;3.42;;;22.20;98.60;;;;;;6201323;28;20054;-84
2021/07/16 12:05:51;;;;;;;3.55;3.00;;;22.20;99.10;;;;;;6217992;28;20036;-84
2021/07/16 12:08:51;;;;;;;;;;;22.30;98.40;;;;;;6203175;28;20145;-84
2021/07/16 12:12:06;;;;;;;3.60;3.30;;;22.30;98.80;;;;;;6201935;28;20279;-83
2021/07/16 12:15:17;;;;;;;3.70;3.00;;;22.30;98.90;;;;;;6217570;28;20153;-77
2021/07/16 12:18:18;;;;;;;3.00;2.70;;;22.50;98.90;;;;;;6218624;28;20061;-83
2021/07/16 12:21:21;;;;;;;4.65;3.13;;;22.60;97.80;;;;;;6202146;28;20030;-85
2021/07/16 12:24:21;;;;;;;4.65;2.90;;;22.60;98.00;;;;;;6218180;28;20029;-84
2021/07/16 12:27:23;;;;;;;3.63;2.88;;;22.80;97.20;;;;;;6218915;28;20935;-82
2021/07/16 12:30:23;;;;;;;4.23;3.00;;;23.10;96.70;;;;;;6219119;28;20077;-82
2021/07/16 12:33:31;;;;;;;3.50;3.20;;;23.50;98.60;;;;;;6218494;28;20058;-84
2021/07/16 12:36:32;;;;;;;2.75;2.55;;;23.90;97.60;;;;;;6218236;28;20384;-83
2021/07/16 12:39:33;;;;;;;3.13;2.83;;;23.80;98.40;;;;;;6201500;28;20057;-83
2021/07/16 12:42:36;;;;;;;4.53;2.95;;;23.60;98.30;;;;;;6199622;28;20036;-84
2021/07/16 12:45:46;;;;;;;3.88;3.30;;;23.60;98.10;;;;;;6200746;28;20396;-84
2021/07/16 12:48:47;;;;;;;4.20;3.15;;;23.60;97.90;;;;;;6217357;28;20540;-81
2021/07/16 12:51:48;;;;;;;4.43;3.60;;;23.50;98.00;;;;;;6201693;28;20073;-86
2021/07/16 12:54:48;;;;;;;3.00;2.80;;;23.50;98.80;;;;;;6201775;28;20041;-86
2021/07/16 12:57:58;;;;;;;3.40;3.10;;;23.50;98.10;;;;;;6201436;28;20026;-85
2021/07/16 13:00:59;;;;;;;3.38;3.08;;;23.40;98.70;;;;;;6201818;28;20778;-78
2021/07/16 13:04:19;;;;;;;6.77;3.27;;;23.80;99.20;;;;;;6217342;28;20037;-77
2021/07/16 13:07:24;;;;;;;3.38;3.08;;;24.40;97.10;;;;;;6216795;28;20062;-84
2021/07/16 13:10:25;;;;;;;5.15;2.83;;;25.00;92.40;;;;;;6217820;28;20036;-87
2021/07/16 13:13:33;;;;;;;3.03;2.83;;;25.00;92.70;;;;;;6200923;28;20054;-86
2021/07/16 13:16:34;;;;;;;9.90;3.35;;;24.90;92.70;;;;;;6217263;28;20041;-86
2021/07/16 13:19:34;;;;;;;8.87;3.30;;;24.80;93.80;;;;;;6200637;28;20018;-87
2021/07/16 13:22:37;;;;;;;4.70;2.90;;;25.00;93.90;;;;;;6199678;28;20040;-83
2021/07/16 13:25:37;;;;;;;2.90;2.67;;;25.20;93.70;;;;;;6217219;28;20054;-83
2021/07/16 13:28:38;;;;;;;3.80;3.13;;;25.70;93.50;;;;;;6217276;28;20119;-83
2021/07/16 13:31:40;;;;;;;2.95;2.72;;;26.00;92.80;;;;;;6201568;28;20459;-83
2021/07/16 13:34:40;;;;;;;3.28;2.85;;;26.50;92.40;;;;;;6217226;28;20038;-82
2021/07/16 13:37:42;;;;;;;2.80;2.60;;;26.90;91.20;;;;;;6217376;28;20029;-84
2021/07/16 13:40:44;;;;;;;2.88;2.67;;;26.70;87.40;;;;;;6217115;28;20702;-84
2021/07/16 13:43:45;;;;;;;5.45;2.85;;;26.40;85.80;;;;;;6199784;28;20029;-84
2021/07/16 13:46:46;;;;;;;2.87;2.67;;;26.20;90.10;;;;;;6201251;28;20033;-83
2021/07/16 13:49:46;;;;;;;3.20;2.90;;;25.60;90.40;;;;;;6216867;28;20065;-87
2021/07/16 13:52:47;;;;;;;2.90;2.60;;;25.10;91.50;;;;;;6200792;28;20141;-85
2021/07/16 13:55:47;;;;;;;5.33;2.80;;;24.80;92.90;;;;;;6217119;28;20140;-82
2021/07/16 13:58:48;;;;;;;5.00;3.13;;;24.50;92.50;;;;;;6200765;28;20033;-83
2021/07/16 14:01:50;;;;;;;3.60;3.30;;;24.10;94.40;;;;;;6216869;28;20487;-81
2021/07/16 14:04:50;;;;;;;3.70;3.40;;;23.80;95.20;;;;;;6216984;28;20030;-80
2021/07/16 14:07:51;;;;;;;6.80;3.30;;;23.80;95.30;;;;;;6218356;28;20113;-81
2021/07/16 14:10:51;;;;;;;3.73;3.43;;;23.80;94.80;;;;;;6200616;28;20030;-82
2021/07/16 14:13:52;;;;;;;4.88;3.33;;;23.80;92.90;;;;;;6216546;28;20056;-80
2021/07/16 14:16:53;;;;;;;3.63;3.17;;;23.60;95.60;;;;;;6216650;28;20042;-79
2021/07/16 14:19:53;;;;;;;4.17;3.07;;;23.70;95.90;;;;;;6216677;28;20033;-83
2021/07/16 14:22:55;;;;;;;3.25;2.97;;;23.90;95.70;;;;;;6216825;28;20495;-84
2021/07/16 14:25:56;;;;;;;4.90;3.40;;;24.10;95.30;;;;;;6200544;28;20033;-84
2021/07/16 14:28:56;;;;;;;4.00;3.30;;;24.10;95.90;;;;;;6200076;28;20117;-83
2021/07/16 14:31:57;;;;;;;4.93;4.03;;;24.10;95.50;;;;;;6216815;28;20033;-80
2021/07/16 14:34:57;;;;;;;15.90;4.63;;;24.00;95.90;;;;;;6216900;28;20483;-82
2021/07/16 14:37:58;;;;;;;5.05;4.65;;;23.90;96.20;;;;;;6217450;28;20033;-80
2021/07/16 14:40:59;;;;;;;4.40;4.00;;;23.50;96.90;;;;;;6221064;28;20455;-80
2021/07/16 14:43:59;;;;;;;4.70;4.30;;;23.10;96.90;;;;;;6220844;28;20037;-79
2021/07/16 14:47:00;;;;;;;5.70;4.73;;;22.80;98.60;;;;;;6237131;28;20492;-80
2021/07/16 14:50:01;;;;;;;5.55;4.90;;;22.60;99.90;;;;;;6220603;28;20026;-81
2021/07/16 14:53:01;;;;;;;5.35;4.85;;;22.30;99.90;;;;;;6220596;28;20076;-80
2021/07/16 14:56:02;;;;;;;5.90;5.20;;;22.20;99.90;;;;;;6221183;28;20038;-82
2021/07/16 14:59:03;;;;;;;6.47;5.30;;;23.40;99.90;;;;;;6220679;28;20038;-82
2021/07/16 15:02:03;;;;;;;7.35;4.72;;;21.70;99.90;;;;;;6203836;28;20022;-80
2021/07/16 15:05:05;;;;;;;5.53;4.93;;;21.10;99.90;;;;;;6220077;28;20117;-82
2021/07/16 15:08:06;;;;;;;5.57;5.07;;;20.60;99.90;;;;;;6219701;28;20048;-81
2021/07/16 15:11:07;;;;;;;5.63;5.13;;;20.50;99.90;;;;;;6221444;28;20042;-80
2021/07/16 15:14:07;;;;;;;6.70;5.40;;;20.50;99.90;;;;;;6219765;28;20053;-80
2021/07/16 15:17:08;;;;;;;5.53;5.03;;;20.60;99.90;;;;;;6221757;28;20442;-80
2021/07/16 15:20:09;;;;;;;6.03;5.53;;;20.60;99.90;;;;;;6219598;28;20030;-80
2021/07/16 15:23:10;;;;;;;5.40;4.90;;;20.70;99.90;;;;;;6219763;28;20080;-80
2021/07/16 15:26:11;;;;;;;5.25;4.75;;;20.60;99.90;;;;;;6236289;28;20033;-81
2021/07/16 15:29:12;;;;;;;6.93;5.27;;;20.50;99.90;;;;;;6219220;28;20040;-81
2021/07/16 15:32:12;;;;;;;6.05;5.10;;;20.40;99.90;;;;;;6220072;28;20030;-82
2021/07/16 15:35:13;;;;;;;5.68;4.82;;;20.30;99.90;;;;;;6203322;28;20038;-82
2021/07/16 15:38:14;;;;;;;6.72;5.85;;;20.30;99.90;;;;;;6219637;28;20084;-81
2021/07/16 15:41:15;;;;;;;9.52;6.13;;;20.50;99.90;;;;;;6219354;28;20041;-83
2021/07/16 15:44:17;;;;;;;6.55;5.95;;;20.50;99.90;;;;;;6219260;28;20601;-81
2021/07/16 15:47:20;;;;;;;5.85;5.35;;;20.70;99.90;;;;;;6219534;28;20096;-82